Time;durP1;ratioP1;P1;durP2;ratioP2;P2;SDS_P1;SDS_P2;PMS_P1;PMS_P2;Temp;Humidity;BMP_temperature;BMP_pressure;BME280_temperature;BME280_humidity;BME280_pressure;Samples;Min_cycle;Max_cycle;Signal;HPM_P1;HPM_P2
2022/10/18 00:01:47;;;;;;;17.50;8.38;;;;;;;9.66;60.98;101839.55;1720110;83;21043;-68
2022/10/18 00:04:17;;;;;;;17.32;7.75;;;;;;;9.63;61.04;101840.72;1720043;83;21050;-69
2022/10/18 00:06:46;;;;;;;17.62;7.55;;;;;;;9.61;61.09;101839.16;1720142;83;21046;-69
2022/10/18 00:09:17;;;;;;;14.68;8.00;;;;;;;9.57;61.03;101831.77;1720159;82;21506;-67
2022/10/18 00:11:46;;;;;;;19.57;7.60;;;;;;;9.55;61.16;101829.70;1720358;83;21042;-66
2022/10/18 00:14:14;;;;;;;17.07;7.67;;;;;;;9.53;61.22;101823.02;1720143;83;21129;-69
2022/10/18 00:16:45;;;;;;;15.68;7.62;;;;;;;9.50;61.29;101815.63;1720352;83;21046;-69
2022/10/18 00:19:15;;;;;;;16.00;7.58;;;;;;;9.46;61.31;101815.08;1720449;83;21114;-67
2022/10/18 00:21:45;;;;;;;16.02;7.87;;;;;;;9.44;61.47;101823.09;1720404;82;21046;-68
2022/10/18 00:24:14;;;;;;;15.58;7.90;;;;;;;9.40;61.90;101816.20;1720299;82;21067;-68
2022/10/18 00:26:43;;;;;;;17.80;6.90;;;;;;;9.38;62.14;101812.26;1720170;83;21281;-67
2022/10/18 00:29:15;;;;;;;16.70;6.70;;;;;;;9.36;62.24;101799.75;1721747;82;21074;-69
2022/10/18 00:31:44;;;;;;;15.70;6.65;;;;;;;9.36;62.28;101802.48;1733872;82;21037;-68
2022/10/18 00:34:14;;;;;;;15.90;7.65;;;;;;;9.35;62.34;101796.66;1733551;83;21022;-69
2022/10/18 00:36:44;;;;;;;13.38;6.83;;;;;;;9.34;62.52;101799.91;1733655;82;21030;-68
2022/10/18 00:39:18;;;;;;;16.37;7.37;;;;;;;9.33;62.79;101795.45;1733220;83;21046;-67
2022/10/18 00:41:49;;;;;;;14.30;7.03;;;;;;;9.32;62.72;101801.08;1733411;82;21538;-68
2022/10/18 00:44:29;;;;;;;14.90;6.75;;;;;;;9.31;62.77;101792.52;1733207;81;21453;-68
2022/10/18 00:47:03;;;;;;;17.17;7.22;;;;;;;9.29;62.75;101794.05;1733302;82;22007;-68
2022/10/18 00:49:40;;;;;;;17.32;6.97;;;;;;;9.29;62.71;101792.67;1734831;82;21470;-67
2022/10/18 00:52:13;;;;;;;12.60;6.63;;;;;;;9.28;62.60;101799.16;1733609;81;21462;-67
2022/10/18 00:54:44;;;;;;;15.65;6.90;;;;;;;9.26;62.56;101796.23;1733418;83;21034;-68
2022/10/18 00:57:13;;;;;;;14.90;6.92;;;;;;;9.23;62.67;101789.70;1733308;82;21497;-68
2022/10/18 00:59:42;;;;;;;14.85;7.28;;;;;;;9.20;62.74;101790.37;1733552;82;21101;-67
2022/10/18 01:02:13;;;;;;;18.20;8.08;;;;;;;9.18;62.69;101792.39;1710906;83;21077;-66
2022/10/18 01:04:45;;;;;;;19.10;8.30;;;;;;;9.17;62.69;101794.78;1733340;82;21054;-68
2022/10/18 01:07:37;;;;;;;17.40;8.23;;;;;;;9.14;63.08;101788.76;1733395;82;21065;-68
2022/10/18 01:10:49;;;;;;;17.25;7.97;;;;;;;9.13;63.17;101784.30;1733708;81;21045;-68
2022/10/18 01:13:57;;;;;;;15.83;7.58;;;;;;;9.11;63.06;101783.09;1733506;82;21457;-68
2022/10/18 01:16:48;;;;;;;15.25;7.45;;;;;;;9.10;63.07;101773.64;1733272;83;21074;-68
2022/10/18 01:20:04;;;;;;;16.45;7.50;;;;;;;9.08;63.16;101777.90;1733772;83;21069;-68
2022/10/18 01:22:46;;;;;;;21.52;7.37;;;;;;;9.07;63.39;101771.22;1733474;81;21065;-69
2022/10/18 01:25:23;;;;;;;18.02;6.90;;;;;;;9.05;63.62;101763.17;1733442;81;21532;-68
2022/10/18 01:28:09;;;;;;;17.35;6.92;;;;;;;9.03;63.58;101763.83;1697294;83;21478;-68
2022/10/18 01:30:49;;;;;;;14.75;6.95;;;;;;;9.05;63.52;101763.17;1725792;81;21118;-68
2022/10/18 01:33:41;;;;;;;15.05;7.28;;;;;;;9.04;63.71;101760.08;1716344;83;21090;-68
2022/10/18 01:36:17;;;;;;;13.60;7.37;;;;;;;9.03;63.73;101757.00;1712705;83;21043;-69
2022/10/18 01:38:48;;;;;;;14.95;7.30;;;;;;;9.04;63.65;101754.61;1716328;83;21542;-68
2022/10/18 01:41:19;;;;;;;14.05;7.00;;;;;;;9.04;63.75;101753.75;1716554;83;21510;-68
2022/10/18 01:43:49;;;;;;;15.38;6.80;;;;;;;9.03;63.78;101754.77;1694397;83;21050;-68
2022/10/18 01:46:21;;;;;;;15.13;7.15;;;;;;;9.01;63.70;101746.72;1690170;85;21066;-68
2022/10/18 01:48:51;;;;;;;15.68;6.90;;;;;;;9.00;63.69;101749.61;1700043;83;21043;-70
2022/10/18 01:51:25;;;;;;;13.03;6.75;;;;;;;9.02;63.68;101744.84;1753643;81;21500;-70
2022/10/18 01:53:54;;;;;;;13.03;5.95;;;;;;;9.00;63.63;101740.04;1754009;81;21065;-69
2022/10/18 01:56:59;;;;;;;13.38;6.85;;;;;;;8.98;63.69;101733.36;1753936;81;21045;-68
2022/10/18 01:59:39;;;;;;;13.58;6.72;;;;;;;8.97;63.62;101730.27;1753727;81;21026;-68
2022/10/18 02:02:32;;;;;;;17.77;6.92;;;;;;;8.99;63.65;101731.48;1753845;82;21010;-70
2022/10/18 02:05:26;;;;;;;14.70;6.83;;;;;;;8.98;63.67;101727.03;1753833;81;21458;-68
2022/10/18 02:08:19;;;;;;;13.32;7.25;;;;;;;8.98;63.83;101730.62;1753864;81;21089;-69
2022/10/18 02:11:03;;;;;;;15.38;7.05;;;;;;;8.98;63.79;101721.56;1753705;82;20998;-68
2022/10/18 02:13:41;;;;;;;14.87;6.25;;;;;;;8.97;63.79;101717.97;1753689;82;21049;-69
2022/10/18 02:16:15;;;;;;;14.35;6.67;;;;;;;9.00;63.32;101715.44;1730971;82;21065;-68
2022/10/18 02:18:53;;;;;;;13.35;6.17;;;;;;;9.02;62.67;101711.53;1753812;81;21386;-67
2022/10/18 02:21:22;;;;;;;11.78;6.12;;;;;;;9.09;62.12;101710.40;1754045;82;21040;-68
2022/10/18 02:23:52;;;;;;;12.82;6.60;;;;;;;9.14;61.96;101706.72;1753828;81;21354;-68
2022/10/18 02:26:21;;;;;;;13.13;6.25;;;;;;;9.18;61.80;101706.76;1730754;82;21069;-70
2022/10/18 02:28:51;;;;;;;12.78;6.30;;;;;;;9.21;61.57;101699.61;1753576;81;21017;-69
2022/10/18 02:31:42;;;;;;;15.08;6.40;;;;;;;9.24;61.42;101697.92;1760173;80;21037;-69
2022/10/18 02:34:40;;;;;;;16.45;6.30;;;;;;;9.24;61.14;101703.91;1763320;81;21009;-69
2022/10/18 02:37:09;;;;;;;13.60;6.85;;;;;;;9.23;61.21;101701.67;1763383;81;21013;-68
2022/10/18 02:39:43;;;;;;;14.30;6.62;;;;;;;9.24;60.93;101692.97;1763466;81;21046;-67
2022/10/18 02:42:12;;;;;;;15.43;6.67;;;;;;;9.24;61.02;101693.83;1763303;81;21077;-69
2022/10/18 02:44:41;;;;;;;12.65;5.95;;;;;;;9.24;60.77;101688.35;1711397;81;21037;-68
2022/10/18 02:47:11;;;;;;;15.23;6.80;;;;;;;9.25;60.69;101694.17;1763548;81;21036;-68
2022/10/18 02:49:39;;;;;;;14.25;5.80;;;;;;;9.27;60.62;101696.75;1763297;80;21045;-68
2022/10/18 02:52:09;;;;;;;13.60;6.90;;;;;;;9.26;60.59;101689.56;1763562;81;21076;-68
2022/10/18 02:54:38;;;;;;;15.03;6.53;;;;;;;9.25;60.69;101694.69;1763520;81;21085;-69
2022/10/18 02:57:07;;;;;;;17.77;6.60;;;;;;;9.26;60.57;101697.77;1763314;81;20986;-68
2022/10/18 02:59:38;;;;;;;17.57;6.62;;;;;;;9.26;60.49;101693.66;1763333;81;21041;-70
2022/10/18 03:02:06;;;;;;;14.50;6.25;;;;;;;9.25;60.46;101687.84;1763168;81;21061;-69
2022/10/18 03:04:36;;;;;;;16.90;6.65;;;;;;;9.24;60.53;101680.15;1763558;81;21045;-69
2022/10/18 03:07:06;;;;;;;17.30;6.90;;;;;;;9.25;60.50;101679.64;1763693;80;21045;-68
2022/10/18 03:09:35;;;;;;;13.50;6.42;;;;;;;9.20;60.68;101681.48;1763555;81;21460;-69
2022/10/18 03:12:04;;;;;;;13.13;6.30;;;;;;;9.20;60.56;101673.27;1763514;81;21454;-67
2022/10/18 03:14:33;;;;;;;16.67;6.85;;;;;;;9.17;60.42;101659.92;1763348;81;21006;-68
2022/10/18 03:17:02;;;;;;;13.70;7.35;;;;;;;9.18;60.29;101663.00;1763518;81;21014;-67
2022/10/18 03:19:31;;;;;;;19.77;7.28;;;;;;;9.19;60.19;101656.01;1763517;81;20997;-67
2022/10/18 03:22:01;;;;;;;21.33;7.45;;;;;;;9.21;59.90;101653.98;1763340;81;21006;-68
2022/10/18 03:24:32;;;;;;;18.73;6.97;;;;;;;9.22;59.66;101649.36;1763012;81;21421;-68
2022/10/18 03:27:02;;;;;;;16.67;7.55;;;;;;;9.25;59.46;101646.82;1763486;81;21049;-70
2022/10/18 03:29:32;;;;;;;13.48;7.22;;;;;;;9.27;59.22;101650.25;1763524;81;21069;-70
2022/10/18 03:32:02;;;;;;;16.77;7.42;;;;;;;9.27;59.14;101650.25;1777403;79;21010;-72
2022/10/18 03:34:33;;;;;;;14.75;7.20;;;;;;;9.28;59.07;101643.77;1806358;79;20959;-69
2022/10/18 03:37:03;;;;;;;14.63;7.60;;;;;;;9.29;59.02;101646.34;1794881;79;20974;-70
2022/10/18 03:39:34;;;;;;;17.55;7.30;;;;;;;9.31;58.91;101648.41;1815082;78;21062;-69
2022/10/18 03:42:04;;;;;;;15.38;7.22;;;;;;;9.33;58.93;101650.98;1753895;80;21660;-69
2022/10/18 03:44:34;;;;;;;15.30;7.47;;;;;;;9.32;58.73;101650.64;1794004;79;20999;-69
2022/10/18 03:47:04;;;;;;;15.30;7.58;;;;;;;9.35;58.63;101648.95;1799962;79;20983;-70
2022/10/18 03:49:34;;;;;;;16.17;7.75;;;;;;;9.34;58.64;101650.83;1798340;79;21003;-68
2022/10/18 03:52:04;;;;;;;15.10;7.40;;;;;;;9.34;58.65;101641.25;1793273;79;21423;-68
2022/10/18 03:54:35;;;;;;;13.10;7.08;;;;;;;9.35;58.65;101650.32;1814465;79;21004;-68
2022/10/18 03:57:05;;;;;;;16.17;7.10;;;;;;;9.34;58.68;101645.87;1782202;79;21496;-70
2022/10/18 03:59:34;;;;;;;19.32;7.90;;;;;;;9.33;58.83;101642.27;1804447;79;21010;-70
2022/10/18 04:02:03;;;;;;;15.60;7.47;;;;;;;9.33;58.67;101635.95;1786114;79;20983;-69
2022/10/18 04:04:33;;;;;;;16.12;7.70;;;;;;;9.31;58.60;101633.87;1799533;79;21042;-69
2022/10/18 04:07:03;;;;;;;16.00;7.08;;;;;;;9.31;58.49;101632.51;1804516;79;21034;-70
2022/10/18 04:09:33;;;;;;;17.40;7.78;;;;;;;9.29;58.36;101626.34;1812506;79;21372;-70
2022/10/18 04:12:03;;;;;;;15.53;7.67;;;;;;;9.27;58.27;101625.64;1797224;79;20994;-71
2022/10/18 04:14:33;;;;;;;12.75;6.72;;;;;;;9.25;58.17;101620.84;1808351;79;21042;-68
2022/10/18 04:17:03;;;;;;;15.03;6.97;;;;;;;9.24;58.11;101621.86;1797891;79;21007;-69
2022/10/18 04:19:33;;;;;;;14.47;7.30;;;;;;;9.21;58.08;101613.46;1801768;79;21074;-70
2022/10/18 04:22:02;;;;;;;14.15;7.17;;;;;;;9.21;58.05;101612.95;1804400;79;21006;-68
2022/10/18 04:24:31;;;;;;;14.58;6.90;;;;;;;9.21;58.05;101611.59;1802131;79;20998;-70
2022/10/18 04:27:00;;;;;;;16.67;6.95;;;;;;;9.21;58.05;101605.26;1798079;79;21037;-69
2022/10/18 04:29:30;;;;;;;13.62;6.47;;;;;;;9.21;57.98;101604.75;1812421;79;20997;-70
2022/10/18 04:31:59;;;;;;;15.58;7.35;;;;;;;9.21;57.89;101606.63;1804777;78;21045;-68
2022/10/18 04:34:29;;;;;;;15.75;7.25;;;;;;;9.23;57.81;101610.56;1802105;79;20974;-70
2022/10/18 04:36:58;;;;;;;16.35;7.45;;;;;;;9.22;57.76;101611.08;1793621;79;21029;-69
2022/10/18 04:39:28;;;;;;;14.45;6.70;;;;;;;9.23;57.67;101606.47;1795110;79;21422;-68
2022/10/18 04:41:57;;;;;;;18.87;7.22;;;;;;;9.24;57.62;101602.72;1793920;79;20991;-71
2022/10/18 04:44:26;;;;;;;14.75;7.20;;;;;;;9.23;57.60;101598.27;1794749;79;21041;-68
2022/10/18 04:46:57;;;;;;;15.30;6.95;;;;;;;9.25;57.57;101597.08;1794789;80;21056;-69
2022/10/18 04:49:25;;;;;;;16.30;6.97;;;;;;;9.26;57.51;101592.47;1794712;80;21440;-69
2022/10/18 04:51:54;;;;;;;17.02;7.20;;;;;;;9.27;57.45;101590.09;1794699;79;20978;-68
2022/10/18 04:54:24;;;;;;;15.60;6.92;;;;;;;9.26;57.41;101587.86;1794517;80;21057;-70
2022/10/18 04:56:54;;;;;;;12.82;6.70;;;;;;;9.27;57.34;101589.58;1794444;80;21037;-69
2022/10/18 04:59:23;;;;;;;21.60;7.47;;;;;;;9.27;57.32;101584.62;1794817;80;21002;-68
2022/10/18 05:01:53;;;;;;;16.15;7.25;;;;;;;9.28;57.30;101575.39;1794566;80;21010;-69
2022/10/18 05:04:22;;;;;;;12.65;6.45;;;;;;;9.29;57.23;101579.84;1794749;79;20990;-69
2022/10/18 05:06:51;;;;;;;14.35;6.60;;;;;;;9.29;57.14;101569.77;1794595;80;21006;-69
2022/10/18 05:09:23;;;;;;;15.25;7.10;;;;;;;9.31;57.06;101575.07;1794467;79;21025;-69
2022/10/18 05:11:54;;;;;;;15.30;6.72;;;;;;;9.31;56.99;101571.83;1794896;79;21050;-70
2022/10/18 05:14:24;;;;;;;15.48;7.47;;;;;;;9.34;56.93;101572.02;1794693;80;21460;-70
2022/10/18 05:16:54;;;;;;;17.52;7.78;;;;;;;9.33;56.88;101570.30;1794608;80;21066;-70
2022/10/18 05:19:24;;;;;;;15.75;7.37;;;;;;;9.34;56.93;101568.77;1794634;80;21017;-69
2022/10/18 05:21:53;;;;;;;15.03;7.40;;;;;;;9.35;56.95;101568.27;1794569;80;21026;-69
2022/10/18 05:24:23;;;;;;;15.10;7.42;;;;;;;9.36;56.90;101576.30;1794634;80;21057;-70
2022/10/18 05:26:54;;;;;;;12.82;6.90;;;;;;;9.38;56.87;101577.00;1794708;80;21019;-70
2022/10/18 05:29:24;;;;;;;17.98;7.22;;;;;;;9.42;56.86;101580.27;1794638;80;21411;-68
2022/10/18 05:31:53;;;;;;;14.68;7.17;;;;;;;9.44;56.80;101576.36;1789833;80;21089;-68
2022/10/18 05:34:23;;;;;;;16.48;6.97;;;;;;;9.47;56.79;101576.03;1784955;80;21046;-70
2022/10/18 05:36:52;;;;;;;14.33;6.97;;;;;;;9.52;56.68;101576.41;1784825;80;21009;-70
2022/10/18 05:39:21;;;;;;;14.73;7.12;;;;;;;9.58;56.59;101574.04;1761036;80;20978;-70
2022/10/18 05:41:50;;;;;;;12.95;6.70;;;;;;;9.62;56.47;101574.06;1784806;80;21494;-69
2022/10/18 05:44:20;;;;;;;14.65;7.05;;;;;;;9.67;56.27;101579.90;1784897;80;21403;-69
2022/10/18 05:46:49;;;;;;;12.80;6.62;;;;;;;9.72;56.16;101578.39;1784481;80;21414;-70
2022/10/18 05:49:19;;;;;;;13.78;6.53;;;;;;;9.79;56.04;101575.38;1784988;80;20990;-70
2022/10/18 05:51:49;;;;;;;12.53;6.53;;;;;;;9.84;55.97;101571.64;1784685;80;21461;-68
2022/10/18 05:54:19;;;;;;;14.10;6.55;;;;;;;9.90;55.89;101569.27;1784572;80;21026;-69
2022/10/18 05:56:49;;;;;;;14.93;7.37;;;;;;;9.94;55.82;101573.39;1784842;80;21423;-70
2022/10/18 05:59:18;;;;;;;13.75;5.65;;;;;;;9.99;55.76;101575.12;1784591;80;20975;-69
2022/10/18 06:01:48;;;;;;;12.25;6.47;;;;;;;10.03;55.74;101576.50;1784662;80;21054;-69
2022/10/18 06:04:18;;;;;;;15.95;6.37;;;;;;;10.09;55.71;101579.95;1784472;80;21054;-69
2022/10/18 06:06:48;;;;;;;16.25;6.28;;;;;;;10.13;55.66;101577.22;1784549;80;21026;-69
2022/10/18 06:09:17;;;;;;;15.25;6.00;;;;;;;10.18;55.63;101578.95;1784734;80;21450;-69
2022/10/18 06:11:48;;;;;;;19.12;6.80;;;;;;;10.24;55.49;101583.80;1784562;80;21026;-70
2022/10/18 06:14:18;;;;;;;16.67;6.42;;;;;;;10.30;55.44;101584.50;1784550;80;21069;-69
2022/10/18 06:16:49;;;;;;;16.87;6.42;;;;;;;10.36;55.28;101587.08;1784621;80;21453;-70
2022/10/18 06:19:18;;;;;;;17.42;6.67;;;;;;;10.41;55.11;101585.59;1784764;80;20995;-71
2022/10/18 06:21:49;;;;;;;17.30;6.47;;;;;;;10.46;54.96;101588.68;1784653;80;21054;-70
2022/10/18 06:24:20;;;;;;;16.60;6.60;;;;;;;10.51;54.85;101581.84;1784282;80;21003;-71
2022/10/18 06:26:49;;;;;;;19.98;7.20;;;;;;;10.57;54.86;101579.80;1784435;80;21041;-70
2022/10/18 06:29:18;;;;;;;16.25;6.20;;;;;;;10.63;54.79;101580.48;1784625;80;21399;-70
2022/10/18 06:31:48;;;;;;;14.95;6.92;;;;;;;10.69;54.61;101588.03;1787679;80;21021;-70
2022/10/18 06:34:18;;;;;;;13.18;5.80;;;;;;;10.74;54.54;101579.64;1794480;79;21037;-71
2022/10/18 06:36:48;;;;;;;15.58;6.33;;;;;;;10.81;54.47;101574.33;1794242;80;21339;-70
2022/10/18 06:39:17;;;;;;;12.80;6.17;;;;;;;10.87;54.42;101572.28;1794374;80;21019;-69
2022/10/18 06:41:47;;;;;;;14.23;5.85;;;;;;;10.92;54.41;101575.36;1804522;79;21007;-71
2022/10/18 06:44:25;;;;;;;;;;;;;;;10.97;54.26;101572.11;1751932;80;21059;-69
2022/10/18 06:46:55;;;;;;;13.55;5.72;;;;;;;11.02;54.26;101574.67;1779699;80;20490;-70
2022/10/18 06:49:25;;;;;;;17.85;6.05;;;;;;;11.06;54.40;101573.84;1757629;81;21015;-69
2022/10/18 06:51:55;;;;;;;14.87;5.67;;;;;;;11.09;54.36;101573.51;1753793;82;21493;-70
2022/10/18 06:54:25;;;;;;;13.28;5.85;;;;;;;11.16;54.25;101567.67;1765220;80;21054;-69
2022/10/18 06:56:58;;;;;;;11.95;6.08;;;;;;;11.23;54.14;101562.34;1753208;81;21015;-70
2022/10/18 06:59:28;;;;;;;14.03;5.70;;;;;;;11.31;53.93;101558.22;1742187;82;21489;-68
2022/10/18 07:02:01;;;;;;;11.57;6.10;;;;;;;11.41;53.95;101552.88;1753584;82;21097;-69
2022/10/18 07:04:30;;;;;;;13.40;6.00;;;;;;;11.49;53.80;101549.77;1724682;83;21105;-68
2022/10/18 07:07:00;;;;;;;12.05;5.60;;;;;;;11.54;53.70;101548.21;1661827;86;21059;-69
2022/10/18 07:09:30;;;;;;;11.73;4.97;;;;;;;11.61;53.64;101546.98;1662214;86;21684;-69
2022/10/18 07:11:59;;;;;;;10.60;5.45;;;;;;;11.68;53.70;101548.85;1661968;86;21026;-68
2022/10/18 07:14:28;;;;;;;13.78;5.97;;;;;;;11.74;53.47;101541.83;1662010;86;21086;-69
2022/10/18 07:16:59;;;;;;;17.42;5.72;;;;;;;11.83;53.34;101535.81;1662436;86;21412;-70
2022/10/18 07:19:30;;;;;;;17.42;9.20;;;;;;;11.92;53.27;101538.34;1661982;86;21022;-70
2022/10/18 07:21:59;;;;;;;18.17;5.40;;;;;;;11.99;53.01;101537.97;1662129;86;21090;-69
2022/10/18 07:24:28;;;;;;;13.62;5.15;;;;;;;12.12;52.39;101536.53;1674536;83;21031;-68
2022/10/18 07:26:57;;;;;;;11.88;5.20;;;;;;;12.26;52.03;101531.64;1727346;83;21026;-68
2022/10/18 07:29:27;;;;;;;13.53;6.40;;;;;;;12.43;51.62;101531.05;1727579;82;21054;-69
2022/10/18 07:31:55;;;;;;;12.10;5.85;;;;;;;12.55;51.07;101528.21;1726995;83;21147;-70
2022/10/18 07:34:24;;;;;;;16.30;5.80;;;;;;;12.69;50.74;101524.66;1725618;83;21136;-70
2022/10/18 07:36:53;;;;;;;14.78;5.33;;;;;;;12.83;50.59;101523.00;1725771;83;21075;-68
2022/10/18 07:39:23;;;;;;;12.75;5.28;;;;;;;12.98;50.55;101517.02;1725619;83;21449;-68
2022/10/18 07:41:53;;;;;;;11.63;4.70;;;;;;;13.39;50.02;101517.52;1725565;83;21502;-68
2022/10/18 07:44:22;;;;;;;12.33;6.78;;;;;;;13.90;49.08;101512.97;1725853;83;21064;-67
2022/10/18 07:46:52;;;;;;;10.23;5.20;;;;;;;14.65;47.75;101508.99;1725760;83;21472;-70
2022/10/18 07:49:21;;;;;;;10.35;5.15;;;;;;;15.39;46.24;101506.66;1725691;83;21080;-69
2022/10/18 07:51:50;;;;;;;10.03;5.58;;;;;;;16.00;45.10;101508.21;1725663;83;21083;-68
2022/10/18 07:54:19;;;;;;;12.45;5.70;;;;;;;16.50;43.77;101501.91;1725879;83;21072;-69
2022/10/18 07:56:49;;;;;;;8.63;5.00;;;;;;;17.00;43.05;101494.98;1751790;81;21092;-69
2022/10/18 07:59:18;;;;;;;11.50;5.40;;;;;;;17.45;42.19;101492.38;1725448;83;21048;-68
2022/10/18 08:01:48;;;;;;;9.80;5.37;;;;;;;17.89;41.28;101487.50;1751481;81;21059;-70
2022/10/18 08:04:18;;;;;;;13.30;5.87;;;;;;;18.36;39.99;101483.98;1725647;83;21021;-69
2022/10/18 08:06:50;;;;;;;12.07;5.72;;;;;;;18.65;39.49;101479.23;1725663;83;21886;-70
2022/10/18 08:09:24;;;;;;;10.85;5.58;;;;;;;18.91;38.63;101475.42;1725854;83;21024;-69
2022/10/18 08:11:55;;;;;;;12.35;6.25;;;;;;;19.12;37.67;101472.78;1725855;83;21068;-68
2022/10/18 08:14:24;;;;;;;12.28;6.20;;;;;;;19.17;37.37;101459.05;1701175;83;21475;-70
2022/10/18 08:16:55;;;;;;;17.73;6.40;;;;;;;19.12;37.22;101458.89;1720665;82;21588;-69
2022/10/18 08:19:24;;;;;;;14.60;7.25;;;;;;;19.07;36.90;101457.33;1690964;85;21012;-69
2022/10/18 08:21:55;;;;;;;15.05;6.97;;;;;;;19.06;36.67;101458.95;1646705;84;21121;-70
2022/10/18 08:24:24;;;;;;;13.28;6.70;;;;;;;19.00;36.73;101452.38;1674274;84;21168;-72
2022/10/18 08:26:53;;;;;;;18.30;6.80;;;;;;;18.91;36.83;101457.37;1681148;84;21487;-73
2022/10/18 08:29:22;;;;;;;11.03;6.58;;;;;;;18.80;36.61;101453.05;1674767;84;21501;-73
2022/10/18 08:31:52;;;;;;;10.72;5.37;;;;;;;18.63;36.83;101452.23;1692593;84;21010;-73
2022/10/18 08:34:21;;;;;;;10.88;5.60;;;;;;;18.49;37.12;101445.05;1687620;85;21081;-73
2022/10/18 08:36:50;;;;;;;10.43;5.70;;;;;;;18.35;37.50;101448.45;1690958;84;21047;-73
2022/10/18 08:39:19;;;;;;;16.15;7.20;;;;;;;18.27;37.85;101436.77;1659239;86;21172;-73
2022/10/18 08:42:23;;;;;;;22.62;11.28;;;;;;;18.20;38.28;101431.77;1693132;83;21121;-73
2022/10/18 08:44:53;;;;;;;33.83;12.23;;;;;;;18.14;38.17;101427.11;1654739;85;21139;-71
2022/10/18 08:47:37;;;;;;;27.62;12.15;;;;;;;18.06;38.38;101432.38;1746402;81;21090;-70
2022/10/18 08:50:15;;;;;;;22.37;7.78;;;;;;;17.98;38.62;101430.72;1665249;85;21046;-72
2022/10/18 08:53:02;;;;;;;11.85;6.58;;;;;;;17.93;38.97;101423.59;1641540;86;21019;-72
2022/10/18 08:55:47;;;;;;;11.00;6.15;;;;;;;17.91;39.09;101420.19;1676168;85;21049;-73
2022/10/18 08:58:34;;;;;;;18.35;7.62;;;;;;;17.92;39.31;101419.13;1591365;89;21574;-72
2022/10/18 09:01:25;;;;;;;13.20;6.35;;;;;;;17.90;39.12;101419.03;1606206;89;21213;-71
2022/10/18 09:04:08;;;;;;;15.75;7.67;;;;;;;17.89;39.41;101405.70;1603459;89;21504;-71
2022/10/18 09:07:17;;;;;;;17.95;8.70;;;;;;;17.90;39.68;101406.02;1593278;89;21106;-74
2022/10/18 09:10:26;;;;;;;20.23;8.60;;;;;;;17.90;39.82;101397.69;1604969;89;21532;-72
2022/10/18 09:13:08;;;;;;;17.23;8.58;;;;;;;17.92;39.64;101396.94;1564692;90;21110;-73
2022/10/18 09:15:57;;;;;;;12.13;7.37;;;;;;;17.96;39.78;101391.80;1603674;86;21514;-71
2022/10/18 09:18:37;;;;;;;12.28;7.20;;;;;;;17.99;39.77;101393.59;1656327;86;21083;-71
2022/10/18 09:21:22;;;;;;;10.13;6.17;;;;;;;18.03;39.63;101393.99;1652424;86;21504;-72
2022/10/18 09:24:14;;;;;;;11.50;6.25;;;;;;;18.06;39.54;101391.62;1646446;86;21071;-71
2022/10/18 09:26:49;;;;;;;11.90;5.90;;;;;;;18.14;39.67;101385.49;1639628;86;21051;-73
2022/10/18 09:29:39;;;;;;;12.60;5.87;;;;;;;18.15;39.73;101372.78;1653496;86;21487;-71
2022/10/18 09:32:26;;;;;;;11.73;5.10;;;;;;;18.16;39.94;101370.33;1649512;86;21242;-74
2022/10/18 09:35:22;;;;;;;13.05;4.60;;;;;;;18.22;39.75;101366.69;1673679;81;21019;-72
2022/10/18 09:37:55;;;;;;;9.05;4.58;;;;;;;18.29;39.72;101372.19;1758946;80;21048;-71
2022/10/18 09:40:28;;;;;;;10.30;4.67;;;;;;;18.30;39.58;101366.95;1770234;80;21793;-69
2022/10/18 09:43:02;;;;;;;11.97;5.35;;;;;;;18.34;39.77;101361.27;1756917;81;21431;-71
2022/10/18 09:45:38;;;;;;;7.70;4.83;;;;;;;18.35;39.99;101339.38;1755004;82;21105;-71
2022/10/18 09:48:19;;;;;;;12.97;5.10;;;;;;;18.36;40.13;101341.08;1780919;79;21085;-71
2022/10/18 09:51:00;;;;;;;7.28;4.30;;;;;;;18.37;40.12;101341.39;1748395;81;21141;-71
2022/10/18 09:54:10;;;;;;;8.83;4.92;;;;;;;18.38;40.14;101327.28;1807322;79;21011;-71
2022/10/18 09:57:23;;;;;;;11.90;4.72;;;;;;;18.40;40.32;101327.06;1815897;79;21091;-71
2022/10/18 09:59:52;;;;;;;9.20;5.25;;;;;;;18.37;40.41;101319.19;1798132;79;21065;-70
2022/10/18 10:02:22;;;;;;;9.70;5.08;;;;;;;18.38;40.56;101312.02;1806846;79;21066;-72
2022/10/18 10:04:55;;;;;;;11.50;5.25;;;;;;;18.45;40.52;101318.05;1812089;79;21496;-72
2022/10/18 10:07:32;;;;;;;7.80;4.37;;;;;;;18.47;40.48;101308.42;1811535;79;21478;-71
2022/10/18 10:10:24;;;;;;;10.05;4.72;;;;;;;18.47;40.52;101298.70;1816048;79;21026;-73
2022/10/18 10:13:21;;;;;;;9.90;4.75;;;;;;;18.53;40.24;101299.72;1815997;79;21019;-69
2022/10/18 10:16:02;;;;;;;11.85;5.08;;;;;;;18.60;40.22;101293.56;1807158;79;21069;-72
2022/10/18 10:18:36;;;;;;;9.40;4.87;;;;;;;18.68;40.08;101297.47;1744326;82;21054;-71
2022/10/18 10:21:07;;;;;;;9.55;4.72;;;;;;;18.72;40.30;101290.91;1673471;83;21151;-70
2022/10/18 10:23:52;;;;;;;9.58;4.65;;;;;;;18.72;40.23;101288.98;1687702;84;21069;-70
2022/10/18 10:26:26;;;;;;;10.40;4.42;;;;;;;18.75;39.98;101287.67;1685658;84;21039;-71
2022/10/18 10:28:56;;;;;;;9.70;4.40;;;;;;;18.79;39.77;101279.20;1676613;85;21073;-72
2022/10/18 10:31:29;;;;;;;8.70;4.87;;;;;;;18.82;39.51;101269.02;1667336;85;21169;-72
2022/10/18 10:34:02;;;;;;;8.53;4.95;;;;;;;18.87;39.68;101270.59;1647290;86;21558;-72
2022/10/18 10:36:33;;;;;;;11.25;5.22;;;;;;;18.90;39.34;101274.30;1673124;85;21118;-72
2022/10/18 10:39:18;;;;;;;11.28;4.67;;;;;;;18.96;39.36;101276.99;1617442;88;21090;-70
2022/10/18 10:41:58;;;;;;;8.55;4.50;;;;;;;18.99;39.47;101268.73;1677821;85;21079;-72
2022/10/18 10:44:32;;;;;;;9.40;4.70;;;;;;;18.99;39.32;101267.34;1729815;82;21022;-73
2022/10/18 10:47:03;;;;;;;9.08;4.28;;;;;;;19.01;39.38;101267.96;1689289;85;21085;-74
2022/10/18 10:49:46;;;;;;;8.28;4.65;;;;;;;19.05;39.14;101262.25;1662318;86;21156;-72
2022/10/18 10:52:21;;;;;;;7.37;4.78;;;;;;;19.08;39.07;101249.83;1720971;82;21086;-71
2022/10/18 10:54:54;;;;;;;8.80;4.50;;;;;;;19.11;38.98;101236.31;1743207;82;21529;-70
2022/10/18 10:57:26;;;;;;;9.80;4.33;;;;;;;19.13;39.01;101243.87;1746468;82;21517;-71
2022/10/18 11:00:02;;;;;;;14.28;5.62;;;;;;;19.16;38.95;101239.23;1748596;82;21518;-72
2022/10/18 11:02:32;;;;;;;9.85;4.53;;;;;;;19.16;39.03;101232.83;1740006;82;21456;-70
2022/10/18 11:05:43;;;;;;;15.25;5.40;;;;;;;19.17;38.95;101232.59;1746711;82;21086;-72
2022/10/18 11:08:20;;;;;;;7.58;4.12;;;;;;;19.16;38.76;101230.91;1721134;82;21488;-72
2022/10/18 11:11:26;;;;;;;8.95;4.50;;;;;;;19.19;38.56;101228.20;1712493;82;21152;-71
2022/10/18 11:14:19;;;;;;;9.48;5.65;;;;;;;19.22;38.49;101221.62;1708456;82;21034;-71
2022/10/18 11:17:17;;;;;;;10.23;5.87;;;;;;;19.21;38.42;101220.48;1745973;81;21440;-70
2022/10/18 11:20:04;;;;;;;8.90;4.50;;;;;;;19.24;38.35;101215.30;1778984;79;21490;-71
2022/10/18 11:22:38;;;;;;;7.80;4.90;;;;;;;19.23;38.56;101197.47;1713204;81;21048;-70
2022/10/18 11:25:10;;;;;;;13.53;4.92;;;;;;;19.24;38.72;101198.63;1709485;83;21487;-72
2022/10/18 11:28:27;;;;;;;9.53;4.97;;;;;;;19.26;38.64;101190.05;1675121;83;21543;-72
2022/10/18 11:31:08;;;;;;;12.37;4.55;;;;;;;19.26;38.84;101187.27;1763856;81;21028;-71
2022/10/18 11:34:05;;;;;;;9.88;5.30;;;;;;;19.26;38.86;101185.34;1729824;81;21543;-72
2022/10/18 11:36:48;;;;;;;10.10;4.80;;;;;;;19.25;38.61;101182.80;1716257;83;21511;-70
2022/10/18 11:39:41;;;;;;;9.13;4.42;;;;;;;19.31;38.61;101186.02;1735765;81;21068;-70
2022/10/18 11:42:28;;;;;;;7.42;4.03;;;;;;;19.30;38.50;101175.98;1781620;79;21423;-74
2022/10/18 11:45:39;;;;;;;6.72;4.05;;;;;;;19.35;38.31;101173.89;1743299;81;21463;-70
2022/10/18 11:48:41;;;;;;;8.35;4.40;;;;;;;19.43;38.13;101168.00;1716534;81;21091;-72
2022/10/18 11:51:31;;;;;;;9.53;4.37;;;;;;;19.45;38.08;101161.66;1700665;81;21033;-72
2022/10/18 11:54:19;;;;;;;5.40;3.90;;;;;;;19.44;37.98;101147.45;1773434;80;21025;-72
2022/10/18 11:57:19;;;;;;;8.63;3.80;;;;;;;19.49;38.11;101147.04;1776246;79;21079;-71
2022/10/18 12:00:17;;;;;;;11.68;4.50;;;;;;;19.51;38.13;101146.30;1763523;79;21098;-72